Sherman, Missouri
Current Conditions -  °F | °C
As of 3:54 AM on Monday 22 Dec 2014 (Local Time) from KSUS Reporting Station
Overcast Overcast  
Wind Chill: 38°   Ceiling: 4200
Heat Index: 42°   Visibility: 10mi
Dew Point: 32°   Wind: 7mph
Humidity: 67%   Direction: 120°ESE
Pressure: 29.82"   Gusts: NA
Location:  38.5691°N, 90.5462°W
Report Text: KSUS 220954Z AUTO 12006KT 10SM BKN042 OVC055 06/00 A2982 RMK AO2 RAB0858E10 SLP102 P0000 T00560000
Loading
Personal Weather Stations






























Interactive Weather Map New forecast layout! Learn more

10-Day Weather Forecast

Advertisements
Track Severe Weather on mobile